Flight Track Log - Related Links

Times and Time Zones

All times are in EDT time to prevent confusion due to time zone crossing. See the KCE2 flight status page for this flight to view local times or setup timezone preferences in your user account.

Time Position Orientation Groundspeed Altitude Reporting Facility
EDT Latitude Longitude Course Direction KTS MPH feet Rate Location/Type
Fri 01:51:02 PM 43.1230 -70.8310 354° North 224 258 3,200  Level FlightAware ADS-B
Fri 01:51:32 PM 43.1530 -70.8350 354° North 245 282 3,900 3,300 Climbing FlightAware ADS-B
Fri 01:52:02 PM 43.1890 -70.8200 17° North 285 328 6,500 5,127 Climbing FlightAware ADS-B
Fri 01:52:27 PM 43.2150 -70.7870 43° Northeast 306 352 8,600 5,400 Climbing FlightAware ADS-B
Fri 01:52:32 PM 43.2200 -70.7760 58° Northeast 317 365 9,200 5,345 Climbing FlightAware ADS-B
Fri 01:53:22 PM 43.2620 -70.6860 57° Northeast 348 400 13,500 4,733 Climbing FlightAware ADS-B
Fri 01:54:02 PM 43.2990 -70.6070 57° Northeast 375 432 16,300 4,425 Climbing FlightAware ADS-B
Fri 01:54:42 PM 43.3370 -70.5260 57° Northeast 382 440 19,400 4,024 Climbing FlightAware ADS-B
Fri 01:55:27 PM 43.3790 -70.4340 58° Northeast 397 457 22,000 3,176 Climbing FlightAware ADS-B
Fri 01:56:07 PM 43.4200 -70.3450 58° Northeast 421 484 23,900 2,965 Climbing FlightAware ADS-B
Fri 01:56:52 PM 43.4680 -70.2400 58° Northeast 434 499 26,200 2,867 Climbing FlightAware ADS-B
Fri 01:57:37 PM 43.5160 -70.1360 58° Northeast 449 517 28,200 2,541 Climbing FlightAware ADS-B
Fri 01:58:17 PM 43.5610 -70.0380 58° Northeast 463 533 29,800 2,400 Climbing FlightAware ADS-B
Fri 01:58:52 PM 43.6030 -69.9460 58° Northeast 471 542 31,200 2,329 Climbing FlightAware ADS-B
Fri 01:59:42 PM 43.6580 -69.8240 58° Northeast 473 544 33,100 2,333 Climbing FlightAware ADS-B
Fri 02:00:22 PM 43.7060 -69.7160 58° Northeast 475 547 34,700 2,047 Climbing FlightAware ADS-B
Fri 02:01:07 PM 43.7570 -69.6030 58° Northeast 483 556 36,000 1,553 Climbing FlightAware ADS-B
Fri 02:01:47 PM 43.8060 -69.4940 58° Northeast 494 568 36,900 750 Climbing FlightAware ADS-B
Fri 02:02:27 PM 43.8530 -69.3870 59° Northeast 511 588 37,000 71 Climbing FlightAware ADS-B
Fri 02:03:12 PM 43.9100 -69.2590 58° Northeast 507 583 37,000  Level FlightAware ADS-B
Fri 02:04:02 PM 43.9680 -69.1290 58° Northeast 499 574 37,000  Level FlightAware ADS-B
Fri 02:04:42 PM 44.0100 -69.0360 58° Northeast 499 574 37,000  Level FlightAware ADS-B
Fri 02:05:32 PM 44.0620 -68.9200 58° Northeast 499 574 37,000  Level FlightAware ADS-B
Fri 02:06:07 PM 44.1160 -68.7900 60° Northeast 506 582 37,000  Level FlightAware ADS-B
Fri 02:06:47 PM 44.1600 -68.6890 59° Northeast 506 582 37,000 -133 Level FlightAware ADS-B
Fri 02:07:37 PM 44.2280 -68.5330 59° Northeast 512 589 36,800 -800 Descending FlightAware ADS-B
Fri 02:08:17 PM 44.2750 -68.4230 59° Northeast 506 582 35,800 -1,800 Descending FlightAware ADS-B
Fri 02:08:57 PM 44.3240 -68.3080 59° Northeast 505 581 34,400 -2,025 Descending FlightAware ADS-B
Fri 02:09:37 PM 44.3700 -68.2010 59° Northeast 499 574 33,100 -2,259 Descending FlightAware ADS-B
Fri 02:10:22 PM 44.4240 -68.0730 59° Northeast 495 570 31,200 -2,467 Descending FlightAware ADS-B
Fri 02:11:07 PM 44.4770 -67.9500 59° Northeast 484 557 29,400 -2,400 Descending FlightAware ADS-B
Fri 02:11:47 PM 44.5220 -67.8430 59° Northeast 471 542 27,800 -2,329 Descending FlightAware ADS-B
Fri 02:12:32 PM 44.5700 -67.7270 60° Northeast 459 528 26,100 -2,188 Descending FlightAware ADS-B
Fri 02:13:12 PM 44.6120 -67.6280 59° Northeast 449 517 24,700 -2,118 Descending FlightAware ADS-B
Fri 02:13:57 PM 44.6540 -67.5090 64° Northeast 440 506 23,100 -2,118 Descending FlightAware ADS-B
Fri 02:14:37 PM 44.6890 -67.4080 64° Northeast 438 504 21,700 -2,100 Descending FlightAware ADS-B
Fri 02:15:17 PM 44.7250 -67.3050 64° Northeast 436 502 20,300 -2,118 Descending FlightAware ADS-B
Fri 02:16:02 PM 44.7650 -67.1900 64° Northeast 427 491 18,700 -2,100 Descending FlightAware ADS-B
Fri 02:16:37 PM 44.7940 -67.1050 64° Northeast 416 479 17,500 -2,084 Descending FlightAware ADS-B
Fri 02:17:37 PM 44.8430 -66.9630 64° Northeast 391 450 15,400 -2,057 Descending FlightAware ADS-B
Fri 02:18:22 PM 44.8770 -66.8640 64° Northeast 381 438 13,900 -2,047 Descending FlightAware ADS-B
Fri 02:19:02 PM 44.9070 -66.7740 65° Northeast 366 421 12,500 -2,025 Descending FlightAware ADS-B
Fri 02:19:42 PM 44.9360 -66.6880 65° Northeast 356 410 11,200 -1,906 Descending FlightAware ADS-B
Fri 02:20:27 PM 44.9680 -66.5950 64° Northeast 345 397 9,800 -1,714 Descending FlightAware ADS-B
Fri 02:20:52 PM 44.9840 -66.5460 65° Northeast 328 377 9,200 -1,350 Descending FlightAware ADS-B
Fri 02:21:07 PM 44.9940 -66.5160 65° Northeast 320 368 8,900 -1,333 Descending FlightAware ADS-B
Fri 02:21:37 PM 45.0130 -66.4600 64° Northeast 312 359 8,200 -1,527 Descending FlightAware ADS-B
Fri 02:22:02 PM 45.0280 -66.4160 64° Northeast 306 352 7,500 -1,650 Descending FlightAware ADS-B
Fri 02:22:17 PM 45.0370 -66.3890 65° Northeast 303 349 7,100 -1,600 Descending FlightAware ADS-B
Fri 02:22:47 PM 45.0550 -66.3340 65° Northeast 291 335 6,300 -1,527 Descending FlightAware ADS-B
Fri 02:23:12 PM 45.0690 -66.2910 65° Northeast 287 330 5,700 -1,500 Descending FlightAware ADS-B
Fri 02:23:27 PM 45.0780 -66.2650 64° Northeast 284 327 5,300 -1,543 Descending FlightAware ADS-B
Fri 02:24:22 PM 45.1090 -66.1720 65° Northeast 276 318 3,900 -1,059 Descending FlightAware ADS-B
Fri 02:24:52 PM 45.1230 -66.1320 64° Northeast 276 318 3,800 -1,418 Descending FlightAware ADS-B
Fri 02:25:17 PM 45.1333 -66.0833 64° Northeast 270 311 2,600 -1,341 Descending Moncton Center
Fri 02:26:17 PM 45.1667 -65.9833 65° Northeast 260 299 1,900 -300 Descending Moncton Center
Fri 02:27:17 PM 45.2167 -65.9667 13° North 210 242 2,000 -250 Climbing Moncton Center
Fri 02:28:17 PM 45.2500 -65.9167 47° Northeast 140 161 1,400 -650 Descending Moncton Center
Fri 02:29:17 PM 45.2667 -65.9000 35° Northeast 120 138 700 -350 Descending Moncton Center
Fri 02:30:17 PM 45.3000 -65.8667 35° Northeast 120 138 700  Level Moncton Center

Login

Don't have an account? Register now (free) for customized features, flight alerts, and more!